Tuxford, Canada
Current Conditions -  °F | °C
As of 10:00 PM on Saturday 22 Nov 2014 (Local Time) from CYQR Reporting Station
Rain Showers Rain Showers  
Wind Chill: 29°   Ceiling: 900
Heat Index: 36°   Visibility: 15mi
Dew Point: 34°   Wind: 8mph
Humidity: 93%   Direction: 250°WSW
Pressure: 29.12"   Gusts: NA
Location:  50.58°N, 105.58°W
Report Text: CYQR 230400Z 25007KT 15SM -SHRA OVC009 02/01 A2912 RMK SC8 SLP885
Loading
Personal Weather Stations






























Interactive Weather Map New forecast layout! Learn more

10-Day Weather Forecast

Advertisements
Track Severe Weather on mobile